Portada
METAR-TAF:

METAR-TAF

Aeropuertos :

Aeropuerto de Belgrado-Nikola Tesla

Belgrado, Serbia

latitud: 44-49N, longitud: 020-17E, altitud: 96 m

Observación

El informe se hizo hace 37 minutos, a las 08:30 UTC
Viento 2 kt con dirección variable
Temperatura 4°C
Humedad 52%
Presión 1029 hPa
Visibilidad 10 km o más
sin nubes por debajo de 1500 m y sin presencia de cumulonimbus.

METAR: LYBE 070830Z VRB02KT CAVOK 04/M05 Q1029 NOSIG

Hora: 10:07 (09:07 UTC)

Pronóstico

El informe se hizo hace 4 horas y 7 minutos, a las 05:00 UTC
Pronóstico válido del 07 a las 06 UTC al 08 a las 06 UTC
Viento 5 kt del sur-sureste
Visibilidad 10 km o más
sin nubes por debajo de 1500 m y sin presencia de cumulonimbus.
Temporalmente
del 08 a las 04 UTC al 08 a las 06 UTC
Visibilidad: 3000 m
neblina

TAF: LYBE 070500Z 0706/0806 15005KT CAVOK TX09/0713Z TNM02/0805Z TEMPO 0804/0806 3000 BR

Observaciones y pronósticos meteorológicos de más de 4000 aeropuertos (mensajes METAR y TAF).

Los puntos amarillos y rojos representan las estaciones disponibles.

Ponga el ratón en el punto deseado para ver el nombre de la estación.

Haga clic para ver las observaciones y los pronósticos meteorológicos.

Para cambiar el mapa : haga clic en los botones verdes con una cruz de color negro para hacer un zoom, en el botón verde con un guión para alejar o en las flechas verdes para mapas adyacentes.


METAR-TAF: